Terminal Aerodrome Forecast
Issued by NWS

Home | Current Version | Previous Version | Text Only | Print | Product List | Glossary On
Versions: 1 2 3 4 5 6 7 8 9 10 11 12 13 14 15
704
FTUS42 TJSJ 042330
TAFNCM
TAF
TNCM 042330Z 0500/0524 09008KT P6SM SCT018
     FM051300 11012KT P6SM SCT020
     FM052330 09006KT P6SM VCSH FEW019=

USA.gov is the U.S. government's official web portal to all federal, state and local government web resources and services.